createdAt,value
2022-09-14T00:01:24.645Z,2.80
2022-09-14T00:04:27.147Z,2.05
2022-09-14T00:07:30.138Z,1.42
2022-09-14T00:10:31.918Z,2.08
2022-09-14T00:13:34.090Z,2.30
2022-09-14T00:16:37.886Z,2.22
2022-09-14T00:19:39.538Z,2.70
2022-09-14T00:22:42.588Z,0.80
2022-09-14T00:25:44.245Z,2.65
2022-09-14T00:28:48.502Z,2.55
2022-09-14T00:31:50.513Z,2.35
2022-09-14T00:34:52.152Z,2.25
2022-09-14T00:37:55.090Z,1.52
2022-09-14T00:40:58.018Z,2.45
2022-09-14T00:44:01.693Z,3.15
2022-09-14T00:47:03.743Z,6.78
2022-09-14T00:50:06.876Z,2.10
2022-09-14T00:53:09.952Z,1.27
2022-09-14T00:56:11.915Z,1.33
2022-09-14T00:59:20.266Z,1.10
2022-09-14T01:02:23.635Z,1.75
2022-09-14T01:05:36.438Z,1.02
2022-09-14T01:09:07.694Z,1.08
2022-09-14T01:12:19.879Z,1.42
2022-09-14T01:15:26.041Z,2.08
2022-09-14T01:18:29.345Z,1.48
2022-09-14T01:21:33.398Z,1.70
2022-09-14T01:24:43.112Z,5.65
2022-09-14T01:27:46.939Z,1.65
2022-09-14T01:30:51.759Z,0.82
2022-09-14T01:33:59.922Z,1.67
2022-09-14T01:37:12.793Z,3.75
2022-09-14T01:40:22.082Z,1.67
2022-09-14T01:43:35.070Z,0.85
2022-09-14T01:46:41.713Z,1.30
2022-09-14T01:49:49.135Z,1.33
2022-09-14T01:52:55.826Z,1.92
2022-09-14T01:56:01.808Z,2.45
2022-09-14T01:59:09.728Z,2.75
2022-09-14T02:02:16.011Z,3.13
2022-09-14T02:05:26.390Z,2.65
2022-09-14T02:08:30.794Z,2.53
2022-09-14T02:11:32.428Z,1.45
2022-09-14T02:14:35.777Z,2.33
2022-09-14T02:17:37.541Z,1.83
2022-09-14T02:20:44.644Z,3.67
2022-09-14T02:23:47.978Z,2.00
2022-09-14T02:26:52.613Z,3.53
2022-09-14T02:29:55.724Z,3.00
2022-09-14T02:33:08.374Z,1.73
2022-09-14T02:36:17.074Z,3.15
2022-09-14T02:39:27.200Z,2.45
2022-09-14T02:42:37.068Z,2.17
2022-09-14T02:45:48.415Z,2.35
2022-09-14T02:49:04.306Z,1.40
2022-09-14T02:52:15.167Z,1.35
2022-09-14T02:55:19.586Z,2.10
2022-09-14T02:58:21.714Z,1.17
2022-09-14T03:01:24.966Z,1.33
2022-09-14T03:04:27.054Z,1.02
2022-09-14T03:07:28.705Z,2.80
2022-09-14T03:10:31.660Z,2.38
2022-09-14T03:13:34.613Z,2.85
2022-09-14T03:16:38.447Z,2.78
2022-09-14T03:19:41.089Z,1.33
2022-09-14T03:22:42.872Z,2.92
2022-09-14T03:25:44.720Z,2.28
2022-09-14T03:28:50.188Z,2.85
2022-09-14T03:31:53.232Z,1.30
2022-09-14T03:34:54.945Z,2.78
2022-09-14T03:37:57.037Z,3.78
2022-09-14T03:40:59.474Z,5.10
2022-09-14T03:44:01.506Z,2.25
2022-09-14T03:47:04.667Z,2.85
2022-09-14T03:50:07.995Z,2.83
2022-09-14T03:53:09.673Z,2.85
2022-09-14T03:56:13.662Z,3.65
2022-09-14T03:59:15.308Z,5.97
2022-09-14T04:02:18.376Z,1.60
2022-09-14T04:05:21.971Z,4.55
2022-09-14T04:08:24.246Z,2.30
2022-09-14T04:11:26.191Z,4.47
2022-09-14T04:14:27.922Z,4.50
2022-09-14T04:17:30.938Z,3.80
2022-09-14T04:20:32.650Z,3.08
2022-09-14T04:23:36.603Z,3.88
2022-09-14T04:26:48.121Z,3.67
2022-09-14T04:29:50.402Z,4.90
2022-09-14T04:32:55.170Z,4.22
2022-09-14T04:35:58.721Z,5.65
2022-09-14T04:39:02.140Z,4.47
2022-09-14T04:42:04.420Z,5.80
2022-09-14T04:45:07.054Z,7.78
2022-09-14T04:48:09.972Z,6.75
2022-09-14T04:51:18.298Z,5.65
2022-09-14T04:54:20.057Z,5.30
2022-09-14T04:57:21.796Z,5.10
2022-09-14T05:00:23.493Z,5.72
2022-09-14T05:03:26.472Z,6.85
2022-09-14T05:06:30.244Z,5.60
2022-09-14T05:09:31.979Z,7.50
2022-09-14T05:12:34.096Z,5.45
2022-09-14T05:15:36.755Z,4.25
2022-09-14T05:18:39.875Z,7.25
2022-09-14T05:21:41.780Z,5.78
2022-09-14T05:24:43.496Z,4.78
2022-09-14T05:27:45.177Z,6.25
2022-09-14T05:30:46.863Z,5.88
2022-09-14T05:33:50.043Z,5.97
2022-09-14T05:36:51.798Z,7.45
2022-09-14T05:39:53.795Z,5.22
2022-09-14T05:42:55.417Z,5.72
2022-09-14T05:46:01.667Z,6.57
2022-09-14T05:49:04.877Z,6.82
2022-09-14T05:52:06.488Z,5.05
2022-09-14T05:55:08.839Z,5.63
2022-09-14T05:58:11.050Z,5.82
2022-09-14T06:01:14.616Z,5.97
2022-09-14T06:04:17.567Z,4.82
2022-09-14T06:07:19.302Z,4.63
2022-09-14T06:10:21.836Z,9.48
2022-09-14T06:13:24.163Z,3.78
2022-09-14T06:16:27.991Z,5.35
2022-09-14T06:19:31.238Z,3.78
2022-09-14T06:22:33.338Z,4.18
2022-09-14T06:25:35.053Z,3.83
2022-09-14T06:28:36.770Z,4.93
2022-09-14T06:31:38.509Z,4.03
2022-09-14T06:34:41.568Z,4.55
2022-09-14T06:37:43.354Z,4.03
2022-09-14T06:40:52.041Z,4.53
2022-09-14T06:43:56.689Z,4.35
2022-09-14T06:46:58.325Z,8.52
2022-09-14T06:50:01.426Z,4.00
2022-09-14T06:53:03.073Z,5.63
2022-09-14T06:56:05.136Z,6.13
2022-09-14T06:59:08.770Z,7.43
2022-09-14T07:02:13.321Z,4.32
2022-09-14T07:08:20.754Z,4.53
2022-09-14T07:11:25.823Z,6.38
2022-09-14T07:14:32.031Z,4.95
2022-09-14T07:17:36.336Z,6.28
2022-09-14T07:20:39.522Z,4.80
2022-09-14T07:23:43.636Z,7.47
2022-09-14T07:26:45.347Z,4.40
2022-09-14T07:29:47.389Z,4.68
2022-09-14T07:32:49.338Z,8.52
2022-09-14T07:35:52.885Z,7.68
2022-09-14T07:38:54.922Z,6.53
2022-09-14T07:41:56.494Z,4.43
2022-09-14T07:44:58.128Z,6.10
2022-09-14T07:48:00.693Z,4.30
2022-09-14T07:51:05.687Z,4.63
2022-09-14T07:54:11.215Z,5.22
2022-09-14T07:57:12.934Z,4.03
2022-09-14T08:00:16.239Z,3.17
2022-09-14T08:03:17.871Z,3.70
2022-09-14T08:06:22.840Z,3.70
2022-09-14T08:09:25.154Z,6.70
2022-09-14T08:12:26.937Z,5.40
2022-09-14T08:15:28.832Z,4.07
2022-09-14T08:18:32.692Z,4.60
2022-09-14T08:21:35.749Z,4.10
2022-09-14T08:24:37.404Z,5.53
2022-09-14T08:27:39.298Z,4.20
2022-09-14T08:30:41.505Z,5.65
2022-09-14T08:33:44.925Z,5.93
2022-09-14T08:36:48.844Z,4.13
2022-09-14T08:39:51.839Z,6.88
2022-09-14T08:42:58.632Z,5.90
2022-09-14T08:46:04.472Z,6.63
2022-09-14T08:49:16.831Z,4.97
2022-09-14T08:52:25.476Z,6.07
2022-09-14T08:55:34.441Z,5.57
2022-09-14T08:58:48.682Z,5.40
2022-09-14T09:01:59.743Z,6.88
2022-09-14T09:05:16.210Z,5.22
2022-09-14T09:08:29.863Z,6.97
2022-09-14T09:11:37.362Z,11.07
2022-09-14T09:14:41.974Z,5.93
2022-09-14T09:17:46.822Z,6.80
2022-09-14T09:20:51.569Z,7.35
2022-09-14T09:24:04.582Z,4.75
2022-09-14T09:27:10.860Z,4.25
2022-09-14T09:30:14.178Z,5.70
2022-09-14T09:33:18.774Z,6.25
2022-09-14T09:36:43.665Z,6.60
2022-09-14T09:39:47.038Z,6.72
2022-09-14T09:43:09.919Z,5.63
2022-09-14T09:46:12.371Z,5.57
2022-09-14T09:49:20.606Z,5.53
2022-09-14T09:52:22.379Z,4.97
2022-09-14T09:55:31.303Z,7.20
2022-09-14T09:58:37.609Z,5.60
2022-09-14T10:01:39.401Z,6.45
2022-09-14T10:04:56.623Z,7.00
2022-09-14T10:07:59.876Z,8.05
2022-09-14T10:11:03.765Z,6.97
2022-09-14T10:14:18.763Z,8.77
2022-09-14T10:17:21.978Z,9.63
2022-09-14T10:20:25.379Z,10.80
2022-09-14T10:23:29.268Z,12.23
2022-09-14T10:26:36.241Z,8.43
2022-09-14T10:29:41.402Z,12.65
2022-09-14T10:32:48.663Z,10.27
2022-09-14T10:35:57.496Z,8.73
2022-09-14T10:39:08.330Z,9.32
2022-09-14T10:42:21.628Z,10.38
2022-09-14T10:45:29.648Z,9.32
2022-09-14T10:48:46.801Z,9.00
2022-09-14T10:52:00.070Z,9.40
2022-09-14T10:55:18.788Z,8.75
2022-09-14T10:58:36.462Z,9.10
2022-09-14T11:01:52.899Z,7.72
2022-09-14T11:08:19.402Z,7.78
2022-09-14T11:11:36.611Z,6.55
2022-09-14T11:15:01.913Z,7.15
2022-09-14T11:18:15.021Z,7.57
2022-09-14T11:21:25.570Z,6.88
2022-09-14T11:24:37.469Z,6.65
2022-09-14T11:27:42.644Z,6.82
2022-09-14T11:30:50.254Z,6.97
2022-09-14T11:33:55.778Z,5.28
2022-09-14T11:37:03.390Z,6.18
2022-09-14T11:40:16.670Z,6.32
2022-09-14T11:43:22.936Z,6.65
2022-09-14T11:46:32.422Z,6.35
2022-09-14T11:49:44.860Z,5.68
2022-09-14T11:52:48.797Z,7.32
2022-09-14T11:55:51.037Z,7.25
2022-09-14T11:58:57.902Z,6.82
2022-09-14T12:02:49.720Z,6.45
2022-09-14T12:05:52.771Z,8.52
2022-09-14T12:13:20.719Z,6.60
2022-09-14T12:16:22.552Z,7.50
2022-09-14T12:19:26.919Z,7.60
2022-09-14T12:25:34.809Z,5.93
2022-09-14T12:28:48.417Z,5.60
2022-09-14T12:32:06.997Z,7.15
2022-09-14T12:35:45.140Z,6.05
2022-09-14T12:39:18.963Z,5.25
2022-09-14T12:42:27.593Z,6.65
2022-09-14T12:45:51.100Z,6.28
2022-09-14T12:48:58.769Z,5.40
2022-09-14T12:52:17.690Z,4.95
2022-09-14T12:55:35.084Z,5.28
2022-09-14T12:58:50.952Z,4.60
2022-09-14T13:01:58.938Z,5.53
2022-09-14T13:05:01.236Z,4.05
2022-09-14T13:08:10.010Z,5.25
2022-09-14T13:11:21.272Z,6.28
2022-09-14T13:14:24.970Z,7.25
2022-09-14T13:17:27.021Z,4.15
2022-09-14T13:20:29.920Z,3.53
2022-09-14T13:23:37.326Z,4.28
2022-09-14T13:26:40.423Z,5.20
2022-09-14T13:29:42.219Z,4.53
2022-09-14T13:32:46.632Z,3.50
2022-09-14T13:35:50.667Z,4.28
2022-09-14T13:38:53.012Z,5.00
2022-09-14T13:41:58.244Z,3.78
2022-09-14T13:45:00.461Z,3.88
2022-09-14T13:48:04.081Z,5.18
2022-09-14T13:51:06.764Z,4.40
2022-09-14T13:54:26.692Z,5.25
2022-09-14T13:57:29.643Z,3.75
2022-09-14T14:00:31.961Z,4.45
2022-09-14T14:03:36.508Z,4.38
2022-09-14T14:06:39.376Z,5.10
2022-09-14T14:09:43.553Z,3.30
2022-09-14T14:12:50.581Z,4.18
2022-09-14T14:15:54.220Z,3.63
2022-09-14T14:18:56.960Z,3.55
2022-09-14T14:22:19.392Z,5.13
2022-09-14T14:25:29.082Z,4.18
2022-09-14T14:28:32.530Z,4.05
2022-09-14T14:31:34.204Z,2.00
2022-09-14T14:34:35.910Z,1.85
2022-09-14T14:37:37.612Z,2.17
2022-09-14T14:40:40.913Z,1.63
2022-09-14T14:43:46.779Z,3.08
2022-09-14T14:46:48.666Z,1.23
2022-09-14T14:49:51.400Z,2.55
2022-09-14T14:52:53.441Z,1.02
2022-09-14T14:55:55.173Z,1.17
2022-09-14T14:59:02.078Z,2.63
2022-09-14T15:02:05.458Z,1.33
2022-09-14T15:05:08.079Z,2.15
2022-09-14T15:08:10.826Z,1.70
2022-09-14T15:11:16.624Z,0.93
2022-09-14T15:14:26.057Z,2.53
2022-09-14T15:17:28.527Z,3.53
2022-09-14T15:20:30.257Z,1.08
2022-09-14T15:23:32.560Z,1.90
2022-09-14T15:26:34.531Z,0.77
2022-09-14T15:29:37.606Z,3.20
2022-09-14T15:32:39.814Z,1.60
2022-09-14T15:35:41.443Z,6.35
2022-09-14T15:38:43.121Z,2.33
2022-09-14T15:41:54.942Z,2.28
2022-09-14T15:49:44.968Z,1.58
2022-09-14T15:52:46.718Z,2.47
2022-09-14T15:55:48.463Z,2.83
2022-09-14T15:58:53.796Z,2.60
2022-09-14T16:01:57.845Z,2.40
2022-09-14T16:05:02.104Z,2.15
2022-09-14T16:08:03.924Z,2.22
2022-09-14T16:11:08.974Z,2.17
2022-09-14T16:14:11.713Z,2.22
2022-09-14T16:17:13.399Z,2.17
2022-09-14T16:20:16.541Z,4.85
2022-09-14T16:23:18.271Z,4.50
2022-09-14T16:47:44.983Z,2.92
2022-09-14T16:50:52.561Z,2.80
2022-09-14T16:53:54.920Z,1.00
2022-09-14T16:56:58.033Z,2.20
2022-09-14T16:59:59.838Z,1.25
2022-09-14T17:03:02.937Z,4.70
2022-09-14T17:06:06.951Z,1.80
2022-09-14T17:09:11.421Z,1.17
2022-09-14T17:12:13.137Z,1.77
2022-09-14T17:15:15.171Z,2.63
2022-09-14T17:18:20.672Z,4.47
2022-09-14T17:21:23.990Z,2.83
2022-09-14T17:24:26.011Z,1.92
2022-09-14T17:27:27.703Z,1.08
2022-09-14T17:30:29.508Z,1.50
2022-09-14T17:33:35.317Z,3.05
2022-09-14T17:36:38.160Z,1.60
2022-09-14T17:39:39.837Z,2.10
2022-09-14T17:42:42.435Z,3.45
2022-09-14T17:45:52.725Z,1.30
2022-09-14T17:48:57.032Z,2.45
2022-09-14T17:55:00.359Z,2.03
2022-09-14T17:58:02.400Z,1.55
2022-09-14T18:01:06.764Z,1.20
2022-09-14T18:04:12.187Z,1.52
2022-09-14T18:07:16.928Z,2.15
2022-09-14T18:10:19.078Z,1.05
2022-09-14T18:13:20.845Z,1.50
2022-09-14T18:16:24.560Z,3.50
2022-09-14T18:19:27.691Z,1.65
2022-09-14T18:22:29.384Z,1.63
2022-09-14T18:25:31.159Z,2.13
2022-09-14T18:28:35.908Z,1.92
2022-09-14T18:31:38.347Z,1.52
2022-09-14T18:34:41.479Z,1.25
2022-09-14T18:37:43.162Z,1.48
2022-09-14T18:40:45.082Z,2.40
2022-09-14T18:43:49.684Z,2.60
2022-09-14T18:46:51.819Z,2.42
2022-09-14T18:49:55.055Z,3.42
2022-09-14T18:52:56.897Z,1.00
2022-09-14T18:56:01.542Z,1.33
2022-09-14T18:59:05.381Z,1.50
2022-09-14T19:02:07.255Z,1.58
2022-09-14T19:05:10.712Z,2.55
2022-09-14T19:08:13.572Z,2.05
2022-09-14T19:11:17.926Z,1.67
2022-09-14T19:17:22.335Z,2.65
2022-09-14T19:20:28.882Z,0.95
2022-09-14T19:23:40.712Z,1.45
2022-09-14T19:26:45.534Z,1.52
2022-09-14T19:29:47.348Z,1.05
2022-09-14T19:32:49.644Z,2.08
2022-09-14T19:35:52.589Z,1.52
2022-09-14T19:38:57.254Z,1.42
2022-09-14T19:41:59.087Z,0.77
2022-09-14T19:45:01.009Z,1.55
2022-09-14T19:48:03.442Z,1.05
2022-09-14T19:51:13.008Z,1.30
2022-09-14T19:54:15.062Z,1.05
2022-09-14T19:57:16.783Z,1.10
2022-09-14T20:00:18.732Z,0.93
2022-09-14T20:03:20.605Z,5.45
2022-09-14T20:06:28.237Z,1.05
2022-09-14T20:09:30.034Z,1.00
2022-09-14T20:12:31.728Z,2.20
2022-09-14T20:15:33.451Z,1.67
2022-09-14T20:18:37.442Z,1.25
2022-09-14T20:21:41.418Z,2.20
2022-09-14T20:24:43.125Z,1.42
2022-09-14T20:27:49.435Z,3.22
2022-09-14T20:30:57.268Z,1.45
2022-09-14T20:33:59.650Z,1.45
2022-09-14T20:37:02.640Z,1.20
2022-09-14T20:40:05.593Z,1.42
2022-09-14T20:43:07.793Z,1.83
2022-09-14T20:46:11.955Z,1.55
2022-09-14T20:49:16.962Z,1.17
2022-09-14T20:52:20.540Z,2.78
2022-09-14T20:55:22.145Z,1.40
2022-09-14T20:58:23.753Z,3.00
2022-09-14T21:01:27.299Z,1.45
2022-09-14T21:04:29.110Z,1.75
2022-09-14T21:07:33.282Z,1.73
2022-09-14T21:10:38.057Z,2.30
2022-09-14T21:13:39.891Z,1.77
2022-09-14T21:16:43.600Z,2.80
2022-09-14T21:19:45.235Z,1.30
2022-09-14T21:22:48.425Z,2.40
2022-09-14T21:25:54.975Z,1.88
2022-09-14T21:28:58.255Z,1.60
2022-09-14T21:31:59.934Z,3.17
2022-09-14T21:35:01.856Z,2.17
2022-09-14T21:38:04.843Z,3.65
2022-09-14T21:41:08.202Z,0.90
2022-09-14T21:44:09.836Z,1.70
2022-09-14T21:47:11.475Z,4.78
2022-09-14T21:50:15.695Z,1.90
2022-09-14T21:53:18.652Z,1.80
2022-09-14T21:56:21.932Z,1.35
2022-09-14T21:59:24.035Z,0.85
2022-09-14T22:02:25.759Z,0.90
2022-09-14T22:05:27.449Z,1.48
2022-09-14T22:08:31.497Z,1.30
2022-09-14T22:11:35.147Z,2.40
2022-09-14T22:14:36.980Z,2.40
2022-09-14T22:17:38.629Z,2.97
2022-09-14T22:20:40.462Z,2.17
2022-09-14T22:23:50.039Z,1.10
2022-09-14T22:26:51.876Z,1.40
2022-09-14T22:29:53.477Z,1.05
2022-09-14T22:32:55.216Z,1.88
2022-09-14T22:35:58.960Z,1.02
2022-09-14T22:39:05.493Z,1.80
2022-09-14T22:42:07.310Z,1.52
2022-09-14T22:45:09.863Z,1.67
2022-09-14T22:48:11.511Z,1.13
2022-09-14T22:51:16.279Z,1.67
2022-09-14T22:54:19.275Z,1.45
2022-09-14T22:57:24.524Z,1.58
2022-09-14T23:00:28.601Z,2.80
2022-09-14T23:03:30.232Z,1.02
2022-09-14T23:06:35.022Z,0.60
2022-09-14T23:09:39.219Z,1.75
2022-09-14T23:12:43.099Z,0.85
2022-09-14T23:15:45.066Z,3.33
2022-09-14T23:18:50.865Z,1.98
2022-09-14T23:21:52.649Z,3.10
2022-09-14T23:24:55.565Z,2.83
2022-09-14T23:27:57.234Z,0.45
2022-09-14T23:30:59.772Z,0.55
2022-09-14T23:34:03.256Z,1.98
2022-09-14T23:37:04.978Z,0.47
2022-09-14T23:40:09.053Z,0.90
2022-09-14T23:43:11.169Z,2.20
2022-09-14T23:46:13.244Z,1.60
2022-09-14T23:49:14.922Z,0.93
2022-09-14T23:52:16.536Z,1.23
2022-09-14T23:55:19.469Z,1.85
2022-09-14T23:58:21.190Z,1.38
